Time;durP1;ratioP1;P1;durP2;ratioP2;P2;SDS_P1;SDS_P2;PMS_P1;PMS_P2;Temp;Humidity;BMP_temperature;BMP_pressure;BME280_temperature;BME280_humidity;BME280_pressure;Samples;Min_cycle;Max_cycle;Signal;HPM_P1;HPM_P2
2022/09/07 00:01:08;;;;;;;6.05;2.10;;;;;;;21.65;57.48;96523.69;6230051;23;20012;-79
2022/09/07 00:03:36;;;;;;;4.18;1.42;;;;;;;21.63;57.31;96525.78;6234533;23;20021;-79
2022/09/07 00:06:09;;;;;;;4.40;1.73;;;;;;;21.60;57.23;96524.44;6232370;23;20024;-79
2022/09/07 00:08:38;;;;;;;4.65;1.50;;;;;;;21.58;57.65;96523.06;6234911;23;20055;-79
2022/09/07 00:11:10;;;;;;;2.72;1.70;;;;;;;21.59;57.75;96527.34;6235995;23;20023;-79
2022/09/07 00:13:40;;;;;;;4.40;1.80;;;;;;;21.62;57.55;96534.00;6235486;23;20086;-79
2022/09/07 00:16:12;;;;;;;3.05;1.90;;;;;;;21.66;57.49;96535.88;6235697;23;20020;-79
2022/09/07 00:18:40;;;;;;;2.67;1.73;;;;;;;21.67;56.87;96532.19;6232047;23;20025;-79
2022/09/07 00:21:14;;;;;;;4.20;1.42;;;;;;;21.68;56.67;96528.47;6237548;23;20071;-79
2022/09/07 00:23:42;;;;;;;4.82;1.77;;;;;;;21.69;56.16;96532.75;6234294;23;20080;-80
2022/09/07 00:26:12;;;;;;;4.60;1.63;;;;;;;21.68;56.02;96541.75;6226559;23;20024;-79
2022/09/07 00:28:39;;;;;;;2.58;1.40;;;;;;;21.67;56.00;96542.81;6227321;23;20047;-80
2022/09/07 00:31:12;;;;;;;3.65;1.83;;;;;;;21.65;56.23;96544.91;6231068;23;20020;-79
2022/09/07 00:33:40;;;;;;;6.20;1.52;;;;;;;21.62;56.46;96534.78;6235306;23;20047;-79
2022/09/07 00:36:09;;;;;;;2.05;1.60;;;;;;;21.60;56.89;96536.91;6229098;23;20059;-79
2022/09/07 00:38:37;;;;;;;4.15;1.70;;;;;;;21.54;56.90;96533.41;6236609;23;20020;-79
2022/09/07 00:41:05;;;;;;;5.65;1.40;;;;;;;21.53;57.05;96538.97;6232947;23;20024;-79
2022/09/07 00:43:36;;;;;;;3.92;1.92;;;;;;;21.48;57.53;96534.44;6235790;23;20016;-79
2022/09/07 00:46:06;;;;;;;2.00;1.60;;;;;;;21.47;57.58;96547.94;6231953;23;20051;-80
2022/09/07 00:48:40;;;;;;;3.22;1.73;;;;;;;21.48;58.80;96544.25;6237732;23;20021;-79
2022/09/07 00:51:11;;;;;;;5.35;1.80;;;;;;;21.46;57.35;96538.38;6230510;23;20081;-79
2022/09/07 00:53:44;;;;;;;4.70;1.80;;;;;;;21.40;57.61;96532.19;6229681;23;20082;-79
2022/09/07 00:56:13;;;;;;;3.42;1.65;;;;;;;21.36;57.42;96531.09;6236306;23;20527;-79
2022/09/07 00:58:43;;;;;;;4.95;1.85;;;;;;;21.31;57.32;96531.84;6233000;23;20056;-79
2022/09/07 01:01:11;;;;;;;3.17;2.00;;;;;;;21.27;57.28;96522.00;6234554;23;20020;-79
2022/09/07 01:03:44;;;;;;;3.63;1.65;;;;;;;21.24;57.39;96523.31;6227241;23;20047;-79
2022/09/07 01:06:17;;;;;;;2.85;1.60;;;;;;;21.22;57.57;96524.63;6242484;23;20032;-79
2022/09/07 01:08:48;;;;;;;3.15;1.67;;;;;;;21.18;57.88;96519.00;6243934;23;20055;-79
2022/09/07 01:11:18;;;;;;;4.53;2.53;;;;;;;21.11;58.02;96502.50;6244167;23;20036;-79
2022/09/07 01:13:47;;;;;;;7.10;2.35;;;;;;;21.07;57.75;96512.81;6244417;23;20120;-78
2022/09/07 01:16:27;;;;;;;3.72;1.80;;;;;;;21.09;57.72;96504.59;6244154;23;20004;-79
2022/09/07 01:19:13;;;;;;;3.55;1.50;;;;;;;21.10;57.50;96500.88;6243908;23;20023;-79
2022/09/07 01:21:56;;;;;;;3.13;1.35;;;;;;;21.08;57.44;96503.81;6243827;23;20009;-79
2022/09/07 01:24:44;;;;;;;3.70;1.70;;;;;;;21.07;57.14;96498.75;6243916;23;20027;-79
2022/09/07 01:27:44;;;;;;;3.45;1.40;;;;;;;21.03;57.06;96481.72;6217666;23;20468;-80
2022/09/07 01:30:16;;;;;;;3.13;1.67;;;;;;;20.98;57.08;96472.66;6243975;23;20060;-79
2022/09/07 01:33:25;;;;;;;3.67;1.63;;;;;;;20.95;57.08;96480.34;6243619;23;20060;-79
2022/09/07 01:36:03;;;;;;;6.68;1.67;;;;;;;20.91;57.58;96474.72;6236440;23;20013;-78
2022/09/07 01:38:38;;;;;;;2.60;1.38;;;;;;;20.91;57.49;96473.94;6242826;23;20031;-79
2022/09/07 01:41:13;;;;;;;4.30;1.55;;;;;;;20.89;57.54;96474.19;6242358;23;20031;-80
2022/09/07 01:43:48;;;;;;;9.05;1.83;;;;;;;20.87;57.85;96464.88;6241948;23;20009;-79
2022/09/07 01:46:21;;;;;;;5.63;1.67;;;;;;;20.85;57.81;96465.13;6216649;23;20028;-79
2022/09/07 01:48:52;;;;;;;5.07;2.03;;;;;;;20.85;57.91;96461.69;6243891;23;20000;-79
2022/09/07 01:51:22;;;;;;;2.25;1.30;;;;;;;20.83;58.09;96464.56;6243872;23;20121;-79
2022/09/07 01:53:55;;;;;;;5.18;1.92;;;;;;;20.82;57.94;96462.97;6243888;23;20077;-79
2022/09/07 01:56:28;;;;;;;3.13;2.03;;;;;;;20.82;57.85;96473.59;6243974;23;20043;-79
2022/09/07 01:59:01;;;;;;;1.75;1.65;;;;;;;20.84;58.07;96475.97;6243987;23;20020;-79
2022/09/07 02:01:35;;;;;;;3.75;1.40;;;;;;;20.86;58.07;96481.81;6244018;23;20144;-80
2022/09/07 02:04:08;;;;;;;4.97;1.80;;;;;;;20.88;57.99;96471.78;6243985;23;20035;-79
2022/09/07 02:06:42;;;;;;;5.68;2.10;;;;;;;20.90;58.08;96473.16;6244120;23;20008;-79
2022/09/07 02:09:17;;;;;;;5.70;1.70;;;;;;;20.92;58.30;96489.56;6244141;23;20063;-79
2022/09/07 02:11:48;;;;;;;3.90;2.05;;;;;;;20.96;58.36;96490.69;6243806;23;20068;-79
2022/09/07 02:14:23;;;;;;;4.63;2.20;;;;;;;20.99;58.82;96484.91;6243854;23;20023;-79
2022/09/07 02:16:56;;;;;;;4.43;2.55;;;;;;;21.02;58.73;96486.25;6243626;23;20016;-78
2022/09/07 02:19:28;;;;;;;3.13;1.83;;;;;;;21.02;58.76;96482.78;6243969;23;20005;-79
2022/09/07 02:21:59;;;;;;;4.15;2.13;;;;;;;21.04;58.84;96483.34;6243776;23;20004;-79
2022/09/07 02:24:32;;;;;;;5.43;1.85;;;;;;;21.05;58.81;96479.63;6244018;23;20069;-79
2022/09/07 02:27:05;;;;;;;5.10;2.05;;;;;;;21.04;59.05;96478.84;6243767;23;20025;-79
2022/09/07 02:29:36;;;;;;;6.20;2.20;;;;;;;21.07;58.92;96480.19;6244031;23;20043;-79
2022/09/07 02:32:05;;;;;;;8.98;1.77;;;;;;;21.09;58.71;96486.81;6243677;23;20032;-79
2022/09/07 02:34:33;;;;;;;6.40;2.25;;;;;;;21.10;59.08;96490.28;6243906;23;20035;-79
2022/09/07 02:37:05;;;;;;;6.07;2.45;;;;;;;21.08;59.37;96495.84;6244034;23;20053;-79
2022/09/07 02:39:36;;;;;;;4.22;2.22;;;;;;;21.09;59.45;96494.78;6244035;23;20015;-79
2022/09/07 02:42:06;;;;;;;2.60;2.13;;;;;;;21.09;59.78;96488.69;6242558;23;20124;-79
2022/09/07 02:44:39;;;;;;;4.57;2.40;;;;;;;21.07;59.99;96498.75;6244168;23;20020;-79
2022/09/07 02:47:17;;;;;;;4.65;2.72;;;;;;;21.04;60.31;96501.91;6244031;23;20047;-79
2022/09/07 02:50:00;;;;;;;5.97;2.35;;;;;;;21.01;60.45;96491.78;6243938;23;20024;-80
2022/09/07 02:52:42;;;;;;;6.82;2.20;;;;;;;20.99;60.57;96484.91;6243703;23;20008;-79
2022/09/07 02:55:23;;;;;;;8.88;2.78;;;;;;;21.01;60.62;96491.78;6244043;23;20020;-79
2022/09/07 02:58:01;;;;;;;4.18;2.47;;;;;;;21.02;60.62;96488.88;6243764;23;20017;-79
2022/09/07 03:00:33;;;;;;;7.13;2.65;;;;;;;21.04;60.58;96486.00;6243750;23;20056;-79
2022/09/07 03:03:18;;;;;;;4.60;2.45;;;;;;;21.04;60.66;96491.31;6243883;23;20076;-79
2022/09/07 03:27:25;;;;;;;5.05;2.58;;;;;;;21.03;60.39;96479.06;6211147;22;20028;-79
2022/09/07 03:35:23;;;;;;;3.72;2.10;;;;;;;21.02;60.86;96483.59;6226284;22;20011;-80
2022/09/07 03:37:51;;;;;;;8.20;2.38;;;;;;;21.04;60.79;96491.31;6245455;23;20032;-79
2022/09/07 03:40:19;;;;;;;9.93;2.60;;;;;;;21.03;61.14;96484.38;6244977;23;20032;-80
2022/09/07 03:42:48;;;;;;;2.75;2.35;;;;;;;21.03;61.00;96495.00;6245405;23;20047;-80
2022/09/07 03:45:17;;;;;;;3.85;2.42;;;;;;;21.03;61.08;96500.28;6245332;23;20008;-79
2022/09/07 03:59:35;;;;;;;5.70;2.63;;;;;;;20.88;61.80;96509.72;6235979;22;20031;-79
2022/09/07 04:02:11;;;;;;;4.53;2.85;;;;;;;20.84;61.90;96507.78;6243742;23;20016;-79
2022/09/07 04:04:46;;;;;;;6.28;3.13;;;;;;;20.81;62.39;96509.09;6243668;23;20043;-79
2022/09/07 04:07:22;;;;;;;3.28;2.20;;;;;;;20.80;62.29;96515.44;6244179;23;20029;-78
2022/09/07 04:09:57;;;;;;;4.03;2.20;;;;;;;20.84;62.59;96518.38;6244772;23;20020;-81
2022/09/07 04:12:42;;;;;;;5.45;2.97;;;;;;;20.85;62.61;96518.16;6244816;23;20035;-81
2022/09/07 04:15:17;;;;;;;8.63;2.80;;;;;;;20.83;62.86;96517.59;6244373;23;20047;-79
2022/09/07 04:18:03;;;;;;;5.45;2.67;;;;;;;20.83;62.57;96520.25;6244351;23;20063;-79
2022/09/07 04:20:40;;;;;;;5.22;2.65;;;;;;;20.83;62.56;96533.50;6244249;23;20091;-79
2022/09/07 04:23:13;;;;;;;4.38;2.63;;;;;;;20.82;62.81;96529.25;6244094;23;20017;-79
2022/09/07 04:25:55;;;;;;;4.60;2.35;;;;;;;20.83;62.94;96527.41;6244176;23;20013;-79
2022/09/07 04:28:33;;;;;;;5.28;2.25;;;;;;;20.85;63.39;96531.41;6243945;23;20048;-79
2022/09/07 04:31:09;;;;;;;5.80;2.72;;;;;;;20.84;63.27;96535.13;6219066;23;20072;-79
2022/09/07 04:33:41;;;;;;;;;;;;;;;20.86;62.84;96548.09;6243937;23;20015;-80
2022/09/07 04:36:18;;;;;;;3.15;2.60;;;;;;;20.86;64.02;96542.81;6243410;23;19900;-79
2022/09/07 04:39:10;;;;;;;6.93;2.78;;;;;;;20.88;64.57;96546.84;6243249;23;20021;-79
2022/09/07 04:44:47;;;;;;;10.20;2.50;;;;;;;20.78;63.57;96558.09;6243820;22;20065;-83
2022/09/07 04:47:59;;;;;;;9.77;3.60;;;;;;;20.78;63.75;96565.25;6245850;23;20008;-83
2022/09/07 04:51:06;;;;;;;5.05;2.58;;;;;;;20.78;63.63;96567.91;6235240;22;20079;-81
2022/09/07 04:54:03;;;;;;;3.75;2.33;;;;;;;20.80;63.95;96571.13;6230196;22;20031;-81
2022/09/07 04:56:37;;;;;;;5.80;3.20;;;;;;;20.80;64.00;96573.78;6239466;23;20009;-81
2022/09/07 04:59:14;;;;;;;7.10;3.10;;;;;;;20.83;64.18;96564.50;6244427;23;20005;-82
2022/09/07 05:02:06;;;;;;;5.95;3.13;;;;;;;20.84;64.30;96566.94;6244794;23;20012;-80
2022/09/07 05:04:51;;;;;;;2.88;2.58;;;;;;;20.86;64.11;96559.53;6244516;23;20023;-80
2022/09/07 05:07:27;;;;;;;5.20;2.38;;;;;;;20.86;63.66;96561.34;6244047;23;20024;-79
2022/09/07 05:10:00;;;;;;;6.47;2.42;;;;;;;20.89;63.85;96566.19;6243940;23;20007;-80
2022/09/07 05:12:29;;;;;;;5.50;2.40;;;;;;;20.91;63.76;96566.75;6221444;22;19997;-80
2022/09/07 05:14:57;;;;;;;3.80;2.30;;;;;;;20.94;63.17;96572.31;6213493;23;20009;-80
2022/09/07 05:17:29;;;;;;;4.05;1.90;;;;;;;20.97;62.97;96558.59;6214194;23;20009;-79
2022/09/07 05:20:01;;;;;;;5.15;2.38;;;;;;;20.96;63.07;96564.94;6213649;23;20005;-80
2022/09/07 05:22:30;;;;;;;5.15;2.30;;;;;;;20.93;63.35;96570.75;6214285;23;20012;-79
2022/09/07 05:24:59;;;;;;;5.35;2.58;;;;;;;20.91;63.94;96567.53;6213063;23;20073;-80
2022/09/07 05:27:26;;;;;;;8.32;3.05;;;;;;;20.88;63.81;96573.34;6202369;23;20021;-79
2022/09/07 05:29:55;;;;;;;9.05;2.67;;;;;;;20.85;64.34;96573.03;6204563;23;20025;-79
2022/09/07 05:32:26;;;;;;;5.43;2.30;;;;;;;20.86;64.67;96572.78;6213944;23;20033;-79
2022/09/07 05:34:54;;;;;;;4.93;2.25;;;;;;;20.84;63.78;96572.22;6212889;23;20029;-79
2022/09/07 05:37:24;;;;;;;4.07;2.50;;;;;;;20.81;64.35;96572.72;6213794;23;20009;-80
2022/09/07 05:39:55;;;;;;;10.07;3.20;;;;;;;20.79;64.46;96574.81;6213706;23;20029;-79
2022/09/07 05:42:26;;;;;;;5.17;2.83;;;;;;;20.72;64.98;96572.34;6213833;23;20013;-80
2022/09/07 05:44:56;;;;;;;5.70;2.35;;;;;;;20.67;65.14;96574.16;6213974;23;20029;-80
2022/09/07 05:47:26;;;;;;;7.82;2.97;;;;;;;20.64;65.32;96562.19;6213931;23;20021;-79
2022/09/07 05:49:55;;;;;;;6.43;2.50;;;;;;;20.63;65.55;96555.28;6213235;23;20039;-80
2022/09/07 05:52:50;;;;;;;9.20;2.92;;;;;;;20.63;65.79;96559.78;6213326;23;20056;-79
2022/09/07 05:55:34;;;;;;;11.75;3.17;;;;;;;20.58;65.67;96563.97;6213661;23;20035;-77
2022/09/07 05:58:10;;;;;;;5.82;2.40;;;;;;;20.54;66.14;96567.31;6213879;23;20028;-78
2022/09/07 06:00:47;;;;;;;5.53;2.70;;;;;;;20.52;66.94;96559.63;6213719;23;20025;-77
2022/09/07 06:03:15;;;;;;;8.38;2.42;;;;;;;20.52;66.48;96564.91;6213725;23;20021;-77
2022/09/07 06:05:47;;;;;;;5.28;2.22;;;;;;;20.50;66.53;96567.00;6213688;23;20034;-77
2022/09/07 06:08:18;;;;;;;4.90;2.60;;;;;;;20.51;66.82;96571.28;6213459;23;20028;-77
2022/09/07 06:10:47;;;;;;;11.30;2.78;;;;;;;20.54;67.05;96568.13;6213349;23;20032;-78
2022/09/07 06:13:18;;;;;;;5.80;2.38;;;;;;;20.54;66.84;96570.78;6213590;23;20019;-77
2022/09/07 06:15:47;;;;;;;5.32;2.45;;;;;;;20.55;67.17;96568.91;6214141;23;20009;-78
2022/09/07 06:18:36;;;;;;;7.50;2.30;;;;;;;20.55;67.35;96572.38;6121899;23;20024;-78
2022/09/07 06:21:07;;;;;;;5.82;2.33;;;;;;;20.59;67.21;96570.06;6120140;23;20014;-80
2022/09/07 06:23:40;;;;;;;6.32;3.65;;;;;;;20.62;67.24;96564.28;6125133;23;20034;-79
2022/09/07 06:26:12;;;;;;;12.68;4.35;;;;;;;20.66;66.89;96569.88;6123681;23;20023;-79
2022/09/07 06:28:42;;;;;;;8.15;4.80;;;;;;;20.67;67.10;96566.19;6118780;23;20022;-78
2022/09/07 06:31:16;;;;;;;8.68;4.07;;;;;;;20.73;67.26;96570.50;6113887;23;20052;-79
2022/09/07 06:33:46;;;;;;;7.38;4.35;;;;;;;20.80;67.07;96581.72;6121108;23;20023;-78
2022/09/07 06:36:16;;;;;;;7.30;4.07;;;;;;;20.89;67.17;96580.25;6114887;23;20097;-78
2022/09/07 06:38:48;;;;;;;6.63;3.72;;;;;;;20.97;66.84;96586.97;6119359;23;20027;-79
2022/09/07 06:41:18;;;;;;;4.22;3.40;;;;;;;21.05;66.50;96586.50;6116570;23;20401;-78
2022/09/07 06:44:06;;;;;;;9.10;3.70;;;;;;;21.16;66.08;96574.16;6118681;23;20007;-78
2022/09/07 06:46:36;;;;;;;7.65;3.92;;;;;;;21.23;65.78;96580.09;6114901;23;20018;-78
2022/09/07 06:49:25;;;;;;;7.22;3.50;;;;;;;21.34;65.46;96580.94;6114932;23;20462;-78
2022/09/07 06:51:54;;;;;;;5.70;2.92;;;;;;;21.45;65.04;96580.06;6116523;23;20050;-78
2022/09/07 06:54:24;;;;;;;8.30;3.22;;;;;;;21.55;64.96;96589.94;6120534;23;20026;-78
2022/09/07 06:57:11;;;;;;;8.98;2.53;;;;;;;21.67;64.14;96587.94;6104123;23;20034;-75
2022/09/07 06:59:39;;;;;;;6.15;3.03;;;;;;;21.74;64.10;96591.19;6095357;23;20698;-75
2022/09/07 07:02:07;;;;;;;5.85;3.05;;;;;;;21.84;63.84;96587.00;6095405;23;20081;-74
2022/09/07 07:04:34;;;;;;;5.28;2.72;;;;;;;21.90;64.28;96594.75;6097424;23;20022;-77
2022/09/07 07:07:11;;;;;;;6.25;2.78;;;;;;;21.97;63.75;96602.50;6097673;23;20534;-72
2022/09/07 07:09:41;;;;;;;6.93;2.33;;;;;;;22.03;64.15;96609.47;6108931;23;20011;-78
2022/09/07 07:12:14;;;;;;;3.17;2.35;;;;;;;22.10;63.42;96602.06;6125753;23;20030;-81
2022/09/07 07:14:43;;;;;;;4.30;2.30;;;;;;;22.18;63.35;96606.13;6101424;23;20015;-79
2022/09/07 07:17:16;;;;;;;5.78;2.40;;;;;;;22.27;62.99;96607.25;6140232;23;20005;-79
2022/09/07 07:19:49;;;;;;;12.48;2.47;;;;;;;22.36;61.70;96612.91;6245656;23;20008;-79
2022/09/07 07:27:42;;;;;;;5.80;2.23;;;;;;;22.69;60.09;96605.63;6207984;23;20007;-78
2022/09/07 07:30:13;;;;;;;4.32;1.88;;;;;;;22.79;60.18;96614.44;6237938;23;20047;-78
2022/09/07 07:32:41;;;;;;;9.20;2.83;;;;;;;22.89;60.12;96615.56;6223683;23;20098;-78
2022/09/07 07:35:10;;;;;;;5.20;2.65;;;;;;;23.00;59.93;96610.06;6220003;23;20021;-78
2022/09/07 07:37:37;;;;;;;6.53;2.30;;;;;;;23.10;58.12;96605.81;6218686;23;20104;-78
2022/09/07 07:40:08;;;;;;;5.32;1.70;;;;;;;23.19;57.83;96607.69;6216687;23;20021;-79
2022/09/07 07:42:48;;;;;;;6.57;2.05;;;;;;;23.32;56.89;96609.06;6215511;23;20099;-78
2022/09/07 07:45:16;;;;;;;5.30;2.20;;;;;;;23.44;56.36;96612.28;6216339;23;20055;-77
2022/09/07 07:48:04;;;;;;;4.70;2.20;;;;;;;23.56;56.47;96603.25;6215188;23;20027;-78
2022/09/07 07:50:31;;;;;;;8.15;2.10;;;;;;;23.64;55.26;96606.19;6214633;23;20021;-77
2022/09/07 07:53:00;;;;;;;3.95;1.52;;;;;;;23.71;55.96;96605.94;6215700;23;20508;-77
2022/09/07 07:55:48;;;;;;;5.63;1.95;;;;;;;23.78;56.37;96603.81;6215137;23;20024;-77
2022/09/07 07:58:17;;;;;;;8.75;1.60;;;;;;;23.81;56.00;96613.97;6215785;23;20043;-79
2022/09/07 08:00:44;;;;;;;3.25;1.52;;;;;;;23.84;56.34;96608.09;6215130;23;20020;-77
2022/09/07 08:03:28;;;;;;;5.20;2.03;;;;;;;23.89;56.49;96611.81;6215219;23;20449;-77
2022/09/07 08:05:56;;;;;;;4.22;1.38;;;;;;;23.94;56.70;96615.31;6215078;23;20020;-77
2022/09/07 08:08:24;;;;;;;4.60;1.42;;;;;;;24.02;55.98;96608.63;6215568;23;20543;-78
2022/09/07 08:10:51;;;;;;;8.85;2.85;;;;;;;24.12;56.10;96615.81;6217190;23;20013;-77
2022/09/07 08:13:21;;;;;;;9.25;2.20;;;;;;;24.23;55.99;96618.19;6217792;23;20021;-77
2022/09/07 08:15:48;;;;;;;4.20;2.00;;;;;;;24.32;55.82;96620.34;6218952;23;20024;-78
2022/09/07 08:18:17;;;;;;;5.07;1.85;;;;;;;24.41;56.48;96614.16;6219941;23;20029;-78
2022/09/07 08:20:45;;;;;;;7.13;1.83;;;;;;;24.53;55.46;96618.44;6219719;23;20453;-78
2022/09/07 08:23:14;;;;;;;3.88;1.77;;;;;;;24.62;55.54;96614.13;6219813;23;20020;-78
2022/09/07 08:25:49;;;;;;;5.38;1.60;;;;;;;24.71;54.65;96622.38;6219198;23;20025;-77
2022/09/07 08:28:16;;;;;;;5.15;1.83;;;;;;;24.78;54.32;96621.03;6219862;23;20103;-78
2022/09/07 08:30:45;;;;;;;11.05;2.28;;;;;;;24.87;54.07;96622.06;6218575;23;20099;-78
2022/09/07 08:33:13;;;;;;;6.45;2.03;;;;;;;24.98;54.22;96622.81;6217441;23;20076;-78
2022/09/07 08:35:41;;;;;;;4.53;1.98;;;;;;;25.08;54.28;96627.34;6219939;23;20043;-78
2022/09/07 08:38:09;;;;;;;6.32;1.63;;;;;;;25.17;53.96;96627.56;6230307;23;20068;-78
2022/09/07 08:40:38;;;;;;;5.20;1.80;;;;;;;25.29;53.85;96634.16;6240297;23;20068;-79
2022/09/07 09:19:51;;;;;;;8.77;2.70;;;;;;;26.28;49.71;96640.44;6245642;23;20019;-79
2022/09/07 09:22:20;;;;;;;4.65;1.95;;;;;;;26.24;50.19;96631.41;6222904;23;20052;-76
2022/09/07 09:24:54;;;;;;;5.47;1.90;;;;;;;26.22;49.37;96626.34;6218243;23;20021;-76
2022/09/07 09:27:22;;;;;;;8.50;1.67;;;;;;;26.24;49.84;96626.06;6214939;23;20028;-75
2022/09/07 09:29:50;;;;;;;5.55;1.70;;;;;;;26.64;49.62;96630.22;6215719;23;20031;-76
2022/09/07 09:32:45;;;;;;;7.55;2.10;;;;;;;27.07;48.74;96630.25;6219260;23;20021;-78
2022/09/07 09:35:16;;;;;;;6.40;2.25;;;;;;;27.49;47.63;96631.34;6243289;23;20032;-81
2022/09/07 09:37:44;;;;;;;8.25;2.08;;;;;;;27.89;46.27;96628.38;6243268;23;20032;-82
2022/09/07 09:40:23;;;;;;;6.45;2.58;;;;;;;28.38;45.56;96624.31;6242030;23;20059;-82
2022/09/07 09:43:03;;;;;;;3.85;1.90;;;;;;;28.90;44.28;96624.16;6234660;23;20021;-84
2022/09/07 09:45:34;;;;;;;7.18;1.90;;;;;;;29.74;42.30;96620.28;6222838;23;20107;-83
2022/09/07 09:48:30;;;;;;;4.65;1.48;;;;;;;31.01;40.22;96620.81;6215769;23;20026;-83
2022/09/07 09:51:00;;;;;;;4.55;1.80;;;;;;;31.93;38.01;96625.31;6218512;23;20099;-84
2022/09/07 09:53:55;;;;;;;5.35;1.65;;;;;;;32.48;37.16;96616.47;6214968;23;20025;-85
2022/09/07 09:56:37;;;;;;;7.60;1.63;;;;;;;33.04;36.04;96605.59;6215087;23;20024;-86
2022/09/07 09:59:13;;;;;;;4.75;1.75;;;;;;;33.12;35.17;96612.88;6215423;23;20020;-85
2022/09/07 10:02:24;;;;;;;9.68;3.92;;;;;;;33.48;34.59;96603.41;6214003;23;20032;-84
2022/09/07 10:05:25;;;;;;;7.20;1.90;;;;;;;33.42;35.06;96600.09;6214395;23;20074;-85
2022/09/07 10:07:55;;;;;;;6.35;1.90;;;;;;;33.97;33.48;96595.50;6215112;23;20100;-84
2022/09/07 10:10:22;;;;;;;10.38;5.03;;;;;;;34.16;33.51;96588.84;6214506;23;20047;-84
2022/09/07 10:12:54;;;;;;;7.78;2.97;;;;;;;34.85;32.38;96595.31;6216738;23;20028;-85
2022/09/07 10:15:30;;;;;;;6.00;2.10;;;;;;;35.54;31.05;96585.41;6214545;23;20013;-85
2022/09/07 10:18:03;;;;;;;2.35;1.13;;;;;;;36.07;30.43;96585.28;6214407;23;20403;-86
2022/09/07 10:20:34;;;;;;;5.60;1.52;;;;;;;36.36;29.54;96597.69;6215660;23;20024;-83
2022/09/07 10:23:21;;;;;;;7.03;1.60;;;;;;;36.54;30.08;96587.28;6216216;23;20012;-83
2022/09/07 10:25:49;;;;;;;8.38;2.13;;;;;;;36.69;30.04;96593.84;6215579;23;20027;-84
2022/09/07 10:28:20;;;;;;;7.68;1.92;;;;;;;36.49;29.74;96582.88;6215359;23;20095;-82
2022/09/07 10:31:08;;;;;;;5.47;2.13;;;;;;;36.47;30.12;96582.47;6215861;23;20017;-82
2022/09/07 10:33:50;;;;;;;5.60;1.40;;;;;;;36.75;30.02;96581.56;6215826;23;20062;-82
2022/09/07 10:36:44;;;;;;;4.72;1.83;;;;;;;36.82;29.73;96572.78;6219361;23;20020;-83
2022/09/07 10:39:17;;;;;;;8.60;1.63;;;;;;;36.34;30.21;96582.88;6219530;23;20023;-83
2022/09/07 10:41:54;;;;;;;6.80;2.42;;;;;;;35.67;31.09;96578.03;6217837;23;20074;-83
2022/09/07 10:44:45;;;;;;;4.55;1.45;;;;;;;34.90;31.83;96578.03;6219821;23;20016;-82
2022/09/07 10:47:28;;;;;;;5.10;2.13;;;;;;;34.25;32.87;96582.19;6220147;23;20357;-83
2022/09/07 10:49:59;;;;;;;6.43;1.55;;;;;;;33.76;33.23;96582.03;6224666;23;20024;-84
2022/09/07 10:52:57;;;;;;;5.87;1.60;;;;;;;33.44;33.20;96573.53;6222649;23;20027;-83
2022/09/07 10:55:31;;;;;;;7.10;1.73;;;;;;;33.26;34.36;96569.38;6223383;23;20031;-83
2022/09/07 10:58:13;;;;;;;6.60;1.85;;;;;;;33.12;33.98;96568.84;6225878;23;20059;-83
2022/09/07 11:00:57;;;;;;;7.05;1.67;;;;;;;33.06;33.89;96581.75;6226254;23;20044;-82
2022/09/07 11:03:37;;;;;;;8.23;1.95;;;;;;;32.98;34.43;96556.34;6224294;23;20031;-83
2022/09/07 11:06:17;;;;;;;4.97;2.20;;;;;;;32.90;34.41;96561.81;6224015;23;20075;-80
2022/09/07 11:09:02;;;;;;;4.65;1.48;;;;;;;32.80;34.37;96544.88;6222487;23;20552;-83
2022/09/07 11:28:54;;;;;;;3.70;1.40;;;;;;;32.22;34.89;96517.47;6218313;22;20230;-85
2022/09/07 12:43:53;;;;;;;4.95;1.33;;;;;;;31.04;34.57;96480.09;6226107;22;20023;-84
2022/09/07 12:49:45;;;;;;;5.85;1.33;;;;;;;31.00;36.90;96457.56;6236677;22;20015;-85
2022/09/07 12:52:52;;;;;;;4.82;1.52;;;;;;;30.90;36.39;96453.31;6243305;23;20032;-84
2022/09/07 13:04:49;;;;;;;;;;;;;;;30.74;37.85;96439.50;6272858;22;20000;-84
2022/09/07 13:08:16;;;;;;;3.53;1.60;;;;;;;30.57;37.83;96439.50;6274254;22;19922;-85
2022/09/07 13:10:57;;;;;;;4.18;1.25;;;;;;;30.49;37.83;96445.63;6274105;22;20011;-84
2022/09/07 13:13:54;;;;;;;4.32;1.60;;;;;;;30.44;38.27;96440.38;6274693;22;20019;-84
2022/09/07 13:16:38;;;;;;;5.45;1.25;;;;;;;30.39;37.97;96450.22;6274773;22;20020;-83
2022/09/07 13:20:22;;;;;;;4.15;1.50;;;;;;;30.34;37.89;96441.50;6273897;22;20015;-85
2022/09/07 13:26:02;;;;;;;6.38;1.30;;;;;;;30.23;37.80;96440.94;6234088;23;20060;-85
2022/09/07 13:47:22;;;;;;;6.15;1.52;;;;;;;29.86;37.95;96407.28;6239004;22;19923;-83
2022/09/07 13:53:42;;;;;;;4.68;1.30;;;;;;;29.79;37.04;96410.44;6216130;22;20068;-82
2022/09/07 13:56:38;;;;;;;9.18;6.40;;;;;;;29.76;36.78;96405.69;6161211;23;20031;-81
2022/09/07 13:59:25;;;;;;;5.72;2.47;;;;;;;29.72;36.71;96408.19;6250344;22;20010;-81
2022/09/07 14:01:54;;;;;;;3.97;1.88;;;;;;;29.68;36.92;96409.88;6267729;23;20024;-81
2022/09/07 14:08:28;;;;;;;2.92;1.65;;;;;;;29.61;37.49;96398.78;6235276;22;20023;-84
2022/09/07 17:17:09;;;;;;;4.85;1.65;;;;;;;27.25;45.42;96259.16;6188878;22;20076;-76
2022/09/07 17:19:36;;;;;;;3.35;1.45;;;;;;;27.18;45.72;96264.09;6184414;23;20029;-76
2022/09/07 17:22:04;;;;;;;4.72;1.65;;;;;;;27.12;46.24;96270.63;6183481;23;20028;-76
2022/09/07 17:24:31;;;;;;;3.95;1.58;;;;;;;27.06;46.77;96275.28;6184047;23;20021;-77
2022/09/07 17:26:59;;;;;;;3.97;1.40;;;;;;;26.98;47.44;96281.31;6183953;23;20056;-76
2022/09/07 17:29:29;;;;;;;5.00;1.55;;;;;;;26.89;47.48;96275.88;6184107;23;20063;-76
2022/09/07 17:31:58;;;;;;;4.68;1.58;;;;;;;26.82;48.15;96275.44;6183664;23;20032;-75
2022/09/07 17:34:47;;;;;;;3.10;1.20;;;;;;;26.74;48.26;96269.97;6183441;23;20091;-75
2022/09/07 17:37:15;;;;;;;3.47;1.70;;;;;;;26.67;48.69;96265.78;6183876;23;20021;-76
2022/09/07 17:39:42;;;;;;;3.90;1.55;;;;;;;26.60;48.61;96259.22;6184233;23;20339;-76
2022/09/07 17:42:10;;;;;;;3.45;1.65;;;;;;;26.52;49.14;96258.78;6183240;23;20025;-77
2022/09/07 17:44:38;;;;;;;4.68;1.38;;;;;;;26.45;49.15;96266.38;6183669;23;20353;-78
2022/09/07 17:47:05;;;;;;;2.70;1.30;;;;;;;26.36;49.20;96265.44;6183344;23;20019;-75
2022/09/07 17:49:33;;;;;;;4.40;1.52;;;;;;;26.25;49.36;96277.38;6184481;23;20048;-75
2022/09/07 17:52:03;;;;;;;3.05;1.80;;;;;;;26.16;49.58;96282.59;6183089;23;20457;-75
2022/09/07 17:54:31;;;;;;;3.42;1.33;;;;;;;26.06;49.63;96278.19;6184251;23;20100;-76
2022/09/07 17:56:59;;;;;;;8.10;1.80;;;;;;;25.98;49.65;96275.38;6183790;23;20020;-77
2022/09/07 17:59:26;;;;;;;1.42;1.15;;;;;;;25.91;49.53;96270.41;6183326;23;20027;-77
2022/09/07 18:02:14;;;;;;;2.28;1.50;;;;;;;25.85;49.75;96277.66;6182567;23;20022;-74
2022/09/07 18:04:41;;;;;;;3.33;1.60;;;;;;;25.77;49.61;96280.16;6182087;23;20081;-77
2022/09/07 18:07:10;;;;;;;3.45;1.67;;;;;;;25.67;49.35;96291.75;6181766;23;20075;-76
2022/09/07 18:09:38;;;;;;;3.90;1.52;;;;;;;25.58;49.28;96290.81;6183295;23;20338;-76
2022/09/07 18:12:06;;;;;;;5.07;1.70;;;;;;;25.52;49.49;96294.59;6182066;23;20032;-76
2022/09/07 18:14:33;;;;;;;3.20;1.40;;;;;;;25.49;49.73;96298.66;6182416;23;20104;-76
2022/09/07 18:17:01;;;;;;;5.60;1.90;;;;;;;25.47;49.87;96293.59;6182367;23;20361;-76
2022/09/07 18:19:28;;;;;;;5.20;1.70;;;;;;;25.44;49.50;96296.84;6184732;23;20100;-76
2022/09/07 18:21:56;;;;;;;4.85;1.70;;;;;;;25.42;50.05;96303.53;6183828;23;20028;-76
2022/09/07 18:24:26;;;;;;;6.55;1.80;;;;;;;25.36;50.14;96305.47;6185021;23;20021;-76
2022/09/07 18:26:54;;;;;;;6.05;1.92;;;;;;;25.28;50.08;96306.88;6184628;23;20028;-75
2022/09/07 18:29:23;;;;;;;2.70;1.55;;;;;;;25.19;50.18;96307.75;6184988;23;20342;-76
2022/09/07 18:32:03;;;;;;;3.22;1.50;;;;;;;25.10;49.93;96312.91;6183780;23;20065;-77
2022/09/07 18:34:32;;;;;;;6.03;1.42;;;;;;;25.01;50.11;96311.94;6184214;23;20023;-76
2022/09/07 18:36:59;;;;;;;6.90;1.80;;;;;;;24.91;50.44;96310.16;6184363;23;20027;-76
2022/09/07 18:39:29;;;;;;;10.48;2.20;;;;;;;24.83;50.39;96321.44;6184742;23;20473;-76
2022/09/07 18:41:57;;;;;;;5.07;2.25;;;;;;;24.76;50.20;96316.41;6184091;23;20029;-76
2022/09/07 18:44:25;;;;;;;1.83;1.40;;;;;;;24.75;50.65;96330.03;6184237;23;20025;-77
2022/09/07 18:47:13;;;;;;;4.32;1.80;;;;;;;24.76;50.92;96331.63;6183713;23;20021;-76
2022/09/07 18:49:49;;;;;;;5.00;1.95;;;;;;;24.75;50.94;96330.84;6184534;23;20021;-76
2022/09/07 18:52:17;;;;;;;6.03;1.63;;;;;;;24.74;51.20;96323.09;6183121;23;20563;-77